Time;durP1;ratioP1;P1;durP2;ratioP2;P2;SDS_P1;SDS_P2;PMS_P1;PMS_P2;Temp;Humidity;BMP_temperature;BMP_pressure;BME280_temperature;BME280_humidity;BME280_pressure;Samples;Min_cycle;Max_cycle;Signal;HPM_P1;HPM_P2
2022/11/17 00:02:14;;;;;;;2.63;1.33;;;7.60;99.90;;;;;;6186755;23;20020;-92
2022/11/17 00:04:40;;;;;;;3.87;1.97;;;7.60;99.90;;;;;;6162730;23;20024;-91
2022/11/17 00:07:05;;;;;;;2.20;1.77;;;6.80;99.90;;;;;;6212598;23;20119;-90
2022/11/17 00:09:31;;;;;;;2.23;1.37;;;7.60;99.90;;;;;;6161717;23;20021;-92
2022/11/17 00:14:43;;;;;;;2.28;2.00;;;7.60;99.90;;;;;;6212341;23;20017;-91
2022/11/17 00:17:11;;;;;;;2.22;1.52;;;7.60;99.90;;;;;;6162415;23;20024;-90
2022/11/17 00:22:23;;;;;;;2.00;1.52;;;7.60;99.90;;;;;;6211890;23;20017;-91
2022/11/17 00:24:49;;;;;;;2.65;1.40;;;7.60;99.90;;;;;;6187936;23;20023;-91
2022/11/17 00:27:16;;;;;;;2.47;1.77;;;7.60;99.90;;;;;;6161210;23;20013;-91
2022/11/17 00:29:41;;;;;;;3.10;1.33;;;7.60;99.90;;;;;;6186622;23;20267;-90
2022/11/17 00:34:59;;;;;;;2.53;1.50;;;7.60;99.90;;;;;;6212453;23;20322;-90
2022/11/17 00:37:26;;;;;;;1.48;1.38;;;7.70;99.90;;;;;;6186989;23;20020;-91
2022/11/17 00:39:54;;;;;;;1.17;0.85;;;7.60;99.90;;;;;;6187380;23;20059;-91
2022/11/17 00:42:20;;;;;;;2.72;1.27;;;8.30;99.90;;;;;;6163705;23;20139;-91
2022/11/17 00:44:46;;;;;;;4.07;1.53;;;7.60;99.90;;;;;;6187018;23;20020;-92
2022/11/17 00:47:14;;;;;;;1.00;1.00;;;7.60;99.90;;;;;;6189224;23;20072;-92
2022/11/17 00:49:39;;;;;;;2.17;1.48;;;7.60;99.90;;;;;;6213346;23;20071;-90
2022/11/17 00:52:05;;;;;;;3.00;1.27;;;7.70;99.90;;;;;;6188969;23;20020;-92
2022/11/17 00:54:34;;;;;;;4.13;1.67;;;7.60;99.90;;;;;;6188305;23;20059;-92
2022/11/17 00:57:00;;;;;;;2.55;1.52;;;7.60;99.90;;;;;;6188737;23;20058;-91
2022/11/17 00:59:26;;;;;;;3.30;3.00;;;7.60;99.90;;;;;;6163333;23;20024;-91
2022/11/17 01:01:55;;;;;;;2.67;1.83;;;7.60;99.90;;;;;;6188618;23;20028;-91
2022/11/17 01:04:22;;;;;;;3.08;1.77;;;7.60;99.90;;;;;;6164469;23;20392;-92
2022/11/17 01:06:48;;;;;;;2.28;1.50;;;7.60;99.90;;;;;;6214010;23;20017;-90
2022/11/17 01:09:23;;;;;;;1.93;1.30;;;7.70;99.90;;;;;;6164592;23;20100;-90
2022/11/17 01:11:50;;;;;;;1.23;1.10;;;7.60;99.90;;;;;;6188609;23;20247;-90
2022/11/17 01:14:24;;;;;;;2.88;1.35;;;7.60;99.90;;;;;;6213410;23;20013;-89
2022/11/17 01:16:51;;;;;;;3.95;2.08;;;7.60;99.90;;;;;;6188576;23;20476;-91
2022/11/17 01:19:17;;;;;;;2.55;1.88;;;7.70;99.90;;;;;;6213596;23;20323;-91
2022/11/17 01:21:43;;;;;;;3.72;1.52;;;7.60;99.90;;;;;;6213087;23;20016;-90
2022/11/17 01:24:10;;;;;;;1.53;1.40;;;7.60;99.90;;;;;;6213140;23;20022;-90
2022/11/17 01:26:36;;;;;;;;;;;8.90;99.90;;;;;;6188782;23;20013;-90
2022/11/17 01:29:04;;;;;;;2.72;1.58;;;7.60;99.90;;;;;;6188020;23;19930;-90
2022/11/17 01:31:33;;;;;;;2.45;1.85;;;8.60;99.90;;;;;;6186379;23;20052;-90
2022/11/17 01:33:59;;;;;;;1.52;1.42;;;7.60;99.90;;;;;;6187920;23;20016;-90
2022/11/17 01:37:19;;;;;;;1.95;1.58;;;7.60;99.90;;;;;;6213100;23;20341;-91
2022/11/17 01:39:21;;;;;;;1.15;1.02;;;8.80;99.90;;;;;;6192411;23;20131;-91
2022/11/17 01:41:47;;;;;;;1.38;1.27;;;7.60;99.90;;;;;;6213233;23;20028;-90
2022/11/17 01:44:35;;;;;;;2.13;1.27;;;8.80;99.90;;;;;;6188605;23;20020;-90
2022/11/17 01:47:05;;;;;;;1.58;0.98;;;7.60;99.90;;;;;;6189190;23;20027;-91
2022/11/17 01:49:31;;;;;;;2.72;1.30;;;7.60;99.90;;;;;;6187840;23;20117;-91
2022/11/17 01:52:02;;;;;;;;;;;7.60;99.90;;;;;;6188747;23;20023;-91
2022/11/17 01:54:34;;;;;;;2.92;1.33;;;7.60;99.90;;;;;;6187514;23;19927;-92
2022/11/17 01:57:05;;;;;;;2.55;1.48;;;7.70;99.90;;;;;;6188186;23;20020;-90
2022/11/17 01:59:44;;;;;;;1.52;1.45;;;7.60;99.90;;;;;;6211664;23;20051;-91
2022/11/17 02:02:10;;;;;;;2.72;2.00;;;7.60;99.90;;;;;;6187832;23;20031;-91
2022/11/17 02:04:42;;;;;;;1.87;0.90;;;7.20;99.90;;;;;;6187442;23;20021;-89
2022/11/17 02:07:32;;;;;;;1.45;1.00;;;7.60;99.90;;;;;;6213593;23;20013;-90
2022/11/17 02:10:00;;;;;;;7.60;1.90;;;7.60;99.90;;;;;;6188468;23;20055;-90
2022/11/17 02:12:26;;;;;;;2.10;1.42;;;7.60;99.90;;;;;;6212854;23;20132;-91
2022/11/17 02:14:55;;;;;;;2.25;1.20;;;7.60;99.90;;;;;;6212185;23;20017;-91
2022/11/17 02:17:23;;;;;;;1.10;0.70;;;6.60;99.90;;;;;;6212724;23;20023;-90
2022/11/17 02:20:11;;;;;;;3.47;2.25;;;7.60;99.90;;;;;;6187221;23;20024;-90
2022/11/17 02:22:55;;;;;;;0.60;0.60;;;7.60;99.90;;;;;;6187790;23;20021;-91
2022/11/17 02:25:34;;;;;;;17.55;2.63;;;7.60;99.90;;;;;;6188680;23;20108;-90
2022/11/17 02:28:00;;;;;;;2.88;1.23;;;7.50;99.90;;;;;;6188235;23;20024;-90
2022/11/17 02:30:30;;;;;;;2.93;1.00;;;7.50;99.90;;;;;;6187427;23;20067;-90
2022/11/17 02:33:02;;;;;;;1.90;1.08;;;7.50;99.90;;;;;;6187224;23;20028;-90
2022/11/17 02:35:36;;;;;;;1.23;0.90;;;7.40;99.90;;;;;;6188078;23;20040;-90
2022/11/17 02:38:23;;;;;;;2.00;1.08;;;7.40;99.90;;;;;;6188285;23;20021;-91
2022/11/17 02:41:21;;;;;;;3.47;1.48;;;7.30;99.90;;;;;;6187875;23;20032;-91
2022/11/17 02:44:30;;;;;;;1.85;1.70;;;7.40;99.90;;;;;;6186349;23;20027;-91
2022/11/17 02:47:22;;;;;;;1.95;1.70;;;7.30;99.90;;;;;;6174768;23;20021;-92
2022/11/17 02:50:00;;;;;;;1.40;1.25;;;7.30;99.90;;;;;;6187151;23;20012;-91
2022/11/17 02:52:27;;;;;;;1.90;1.27;;;8.10;99.90;;;;;;6187758;23;20078;-91
2022/11/17 02:54:59;;;;;;;1.63;0.98;;;7.20;99.90;;;;;;6187579;23;20099;-92
2022/11/17 02:57:28;;;;;;;2.35;1.23;;;6.60;99.90;;;;;;6187769;23;20023;-91
2022/11/17 02:59:56;;;;;;;0.90;0.80;;;7.20;99.90;;;;;;6186565;23;20021;-92
2022/11/17 03:02:43;;;;;;;1.67;1.00;;;8.20;99.90;;;;;;6188025;23;20056;-94
2022/11/17 03:05:24;;;;;;;3.40;1.05;;;7.20;99.90;;;;;;6188136;23;20055;-93
2022/11/17 03:08:08;;;;;;;2.63;1.35;;;7.00;99.90;;;;;;6187378;23;20016;-93
2022/11/17 03:10:59;;;;;;;1.92;0.90;;;7.10;99.90;;;;;;6188499;23;20021;-92
2022/11/17 03:13:38;;;;;;;0.93;0.70;;;6.00;99.90;;;;;;6212904;23;20017;-95
2022/11/17 03:16:25;;;;;;;3.63;1.35;;;7.00;99.90;;;;;;6188052;23;20078;-94
2022/11/17 03:19:04;;;;;;;2.05;1.15;;;7.00;99.90;;;;;;6187938;23;20021;-95
2022/11/17 03:22:07;;;;;;;1.27;1.17;;;7.10;99.90;;;;;;6188996;23;20516;-94
2022/11/17 03:25:25;;;;;;;;;;;;;;;;;;;;;
2022/11/17 03:31:59;;;;;;;;;;;;;;;;;;;;;
2022/11/17 03:35:03;;;;;;;0.65;0.60;;;6.70;99.90;;;;;;6156636;23;20039;-94
2022/11/17 03:37:38;;;;;;;2.05;1.15;;;6.30;99.90;;;;;;6156862;23;20044;-96
2022/11/17 03:40:41;;;;;;;1.77;1.30;;;7.10;99.90;;;;;;6133944;23;20016;-96
2022/11/17 03:43:15;;;;;;;1.35;0.60;;;6.80;99.90;;;;;;6144728;23;20023;-96
2022/11/17 03:46:01;;;;;;;1.20;0.50;;;6.80;99.90;;;;;;6158597;23;20100;-96
2022/11/17 03:48:42;;;;;;;3.35;1.23;;;7.00;99.90;;;;;;6157944;23;20017;-96
2022/11/17 03:51:15;;;;;;;0.95;0.40;;;6.90;99.90;;;;;;6136616;23;20088;-96
2022/11/17 03:53:45;;;;;;;3.88;1.05;;;6.80;99.90;;;;;;6138670;23;20017;-95
2022/11/17 03:56:54;;;;;;;1.00;0.90;;;6.80;99.90;;;;;;6136920;23;20020;-96
2022/11/17 04:00:01;;;;;;;1.08;0.45;;;6.80;99.90;;;;;;6136047;23;20041;-96
2022/11/17 04:03:16;;;;;;;2.40;0.57;;;5.90;99.90;;;;;;6168998;23;20020;-96
2022/11/17 04:06:18;;;;;;;1.80;0.52;;;6.70;99.90;;;;;;6158485;23;20017;-96
2022/11/17 04:09:08;;;;;;;2.45;0.50;;;7.10;99.90;;;;;;6166397;23;20012;-96
2022/11/17 04:18:03;;;;;;;;;;;;;;;;;;;;;
2022/11/17 04:21:11;;;;;;;;;;;;;;;;;;;;;
2022/11/17 04:25:08;;;;;;;;;;;;;;;;;;;;;
2022/11/17 04:30:35;;;;;;;1.02;0.57;;;6.10;99.90;;;;;;6194547;23;20067;-96
2022/11/17 04:33:17;;;;;;;;;;;;;;;;;;;;;
2022/11/17 04:35:49;;;;;;;0.90;0.68;;;6.50;99.90;;;;;;6201819;23;20519;-96
2022/11/17 04:38:25;;;;;;;1.92;0.50;;;6.90;99.90;;;;;;6222032;23;20060;-96
2022/11/17 04:44:53;;;;;;;;;;;;;;;;;;;;;
2022/11/17 04:48:03;;;;;;;;;;;;;;;;;;;;;
2022/11/17 04:54:36;;;;;;;;;;;;;;;;;;;;;
2022/11/17 04:57:45;;;;;;;0.63;0.32;;;6.40;99.90;;;;;;6221372;23;20017;-96
2022/11/17 05:00:45;;;;;;;0.55;0.30;;;7.10;99.90;;;;;;6205447;23;20048;-96
2022/11/17 05:03:59;;;;;;;0.80;0.68;;;6.00;99.90;;;;;;6209162;23;20028;-96
2022/11/17 05:10:17;;;;;;;;;;;;;;;;;;;;;
2022/11/17 05:13:31;;;;;;;1.25;0.13;;;7.00;99.90;;;;;;6205108;23;20024;-96
2022/11/17 05:20:03;;;;;;;0.82;0.82;;;7.30;99.90;;;;;;6208329;23;20055;-96
2022/11/17 05:26:29;;;;;;;0.57;0.40;;;6.30;99.90;;;;;;6117314;23;20069;-96
2022/11/17 05:29:38;;;;;;;;;;;;;;;;;;;;;
2022/11/17 05:32:43;;;;;;;4.10;0.98;;;7.20;99.90;;;;;;6198277;23;20047;-96
2022/11/17 05:35:15;;;;;;;0.73;0.35;;;6.10;99.90;;;;;;6186886;23;20064;-96
2022/11/17 05:37:52;;;;;;;0.65;0.65;;;5.70;99.90;;;;;;6202750;23;20024;-96
2022/11/17 05:40:20;;;;;;;0.73;0.47;;;5.90;99.90;;;;;;6175290;23;20016;-96
2022/11/17 05:42:56;;;;;;;1.30;0.75;;;6.80;99.90;;;;;;6200197;23;20020;-96
2022/11/17 05:49:42;;;;;;;1.13;0.80;;;6.10;99.90;;;;;;6196428;23;20017;-96
2022/11/17 05:52:25;;;;;;;;;;;4.90;99.90;;;;;;6190748;23;20016;-96
2022/11/17 05:54:58;;;;;;;1.42;0.43;;;6.10;99.90;;;;;;6197437;23;19916;-96
2022/11/17 05:57:59;;;;;;;;;;;;;;;;;;;;;
2022/11/17 06:00:35;;;;;;;1.63;0.88;;;6.20;99.90;;;;;;6202103;23;20016;-96
2022/11/17 06:03:07;;;;;;;1.27;0.25;;;6.10;99.90;;;;;;6172453;23;20025;-96
2022/11/17 06:05:36;;;;;;;0.75;0.47;;;6.10;99.90;;;;;;6220289;23;20016;-96
2022/11/17 06:08:10;;;;;;;2.10;0.50;;;5.80;99.90;;;;;;6193687;23;20024;-96
2022/11/17 06:10:41;;;;;;;1.50;0.50;;;6.90;99.90;;;;;;6195300;23;20024;-96
2022/11/17 06:13:11;;;;;;;1.70;0.52;;;5.30;99.90;;;;;;6172531;23;20027;-96
2022/11/17 06:16:07;;;;;;;1.00;0.35;;;7.30;99.90;;;;;;6178153;23;20024;-96
2022/11/17 06:21:53;;;;;;;0.30;0.28;;;5.50;99.90;;;;;;6212144;23;20033;-91
2022/11/17 06:25:03;;;;;;;0.82;0.60;;;5.90;99.90;;;;;;6164902;23;20020;-94
2022/11/17 06:27:39;;;;;;;0.80;0.50;;;5.90;99.90;;;;;;6212914;23;20035;-93
2022/11/17 06:30:08;;;;;;;1.00;0.35;;;5.90;99.90;;;;;;6188294;23;20024;-93
2022/11/17 06:32:39;;;;;;;0.75;0.20;;;5.90;99.90;;;;;;6164218;23;20017;-96
2022/11/17 06:35:32;;;;;;;0.10;0.10;;;5.90;99.90;;;;;;6190902;23;20103;-96
2022/11/17 06:37:59;;;;;;;1.85;0.30;;;6.00;99.90;;;;;;6190798;23;20016;-94
2022/11/17 06:41:10;;;;;;;;;;;5.90;99.90;;;;;;6189943;23;20016;-94
2022/11/17 06:43:48;;;;;;;0.10;0.10;;;5.40;99.90;;;;;;6191824;23;19916;-93
2022/11/17 06:46:17;;;;;;;0.30;0.28;;;7.10;99.90;;;;;;6188096;23;20086;-91
2022/11/17 06:48:58;;;;;;;0.20;0.20;;;7.20;99.90;;;;;;6168746;23;20406;-96
2022/11/17 06:51:36;;;;;;;;;;;;;;;;;;;;;
2022/11/17 06:54:07;;;;;;;0.80;0.40;;;5.80;99.90;;;;;;6213765;23;20023;-92
2022/11/17 06:56:48;;;;;;;0.40;0.40;;;5.90;99.90;;;;;;6187463;23;20024;-93
2022/11/17 06:59:16;;;;;;;0.40;0.40;;;5.90;99.90;;;;;;6187325;23;20103;-91
2022/11/17 07:01:42;;;;;;;0.32;0.32;;;6.00;99.90;;;;;;6188195;23;20055;-91
2022/11/17 07:04:13;;;;;;;0.70;0.47;;;6.20;99.90;;;;;;6163645;23;20017;-90
2022/11/17 07:06:43;;;;;;;1.10;0.60;;;5.90;99.90;;;;;;6163568;23;20449;-91
2022/11/17 07:09:09;;;;;;;0.47;0.38;;;5.90;99.90;;;;;;6163016;23;20017;-91
2022/11/17 07:11:38;;;;;;;1.00;0.43;;;5.80;99.90;;;;;;6187905;23;20441;-90
2022/11/17 07:14:06;;;;;;;0.30;0.30;;;5.90;99.90;;;;;;6162763;23;20449;-91
2022/11/17 07:16:32;;;;;;;0.50;0.20;;;5.90;99.90;;;;;;6163137;23;20020;-88
2022/11/17 07:18:58;;;;;;;3.13;1.00;;;7.20;99.90;;;;;;6213979;23;20023;-86
2022/11/17 07:21:24;;;;;;;1.17;0.93;;;4.80;99.90;;;;;;6213078;23;20081;-86
2022/11/17 07:23:50;;;;;;;0.97;0.57;;;5.90;99.90;;;;;;6163879;23;20028;-87
2022/11/17 07:26:15;;;;;;;0.30;0.30;;;5.90;99.90;;;;;;6163035;23;20017;-87
2022/11/17 07:28:44;;;;;;;0.37;0.30;;;5.90;99.90;;;;;;6188207;23;20020;-87
2022/11/17 07:31:12;;;;;;;1.05;0.50;;;6.00;99.90;;;;;;6188670;23;20025;-88
2022/11/17 07:33:38;;;;;;;1.33;0.80;;;6.00;99.90;;;;;;6189250;23;20013;-87
2022/11/17 07:36:09;;;;;;;1.00;0.97;;;7.30;99.90;;;;;;6163885;23;20319;-88
2022/11/17 07:38:37;;;;;;;0.45;0.40;;;5.90;99.90;;;;;;6188298;23;20070;-88
2022/11/17 07:41:06;;;;;;;1.42;0.88;;;5.60;99.90;;;;;;6213627;23;20099;-88
2022/11/17 07:43:33;;;;;;;0.30;0.30;;;5.90;99.90;;;;;;6213130;23;20345;-88
2022/11/17 07:46:03;;;;;;;2.00;0.30;;;5.00;99.90;;;;;;6213598;23;20016;-88
2022/11/17 07:48:29;;;;;;;0.47;0.47;;;5.90;99.90;;;;;;6163243;23;20023;-88
2022/11/17 07:50:57;;;;;;;0.47;0.47;;;5.90;99.90;;;;;;6188792;23;20016;-88
2022/11/17 07:53:23;;;;;;;2.15;0.35;;;5.90;99.90;;;;;;6188084;23;20016;-88
2022/11/17 07:55:51;;;;;;;1.00;0.67;;;6.00;99.90;;;;;;6212758;23;20024;-87
2022/11/17 07:58:17;;;;;;;0.68;0.30;;;7.20;99.90;;;;;;6212693;23;20051;-88
2022/11/17 08:00:42;;;;;;;0.93;0.60;;;5.90;99.90;;;;;;6213248;23;20040;-88
2022/11/17 08:03:09;;;;;;;0.53;0.50;;;5.90;99.90;;;;;;6188814;23;20021;-88
2022/11/17 08:05:38;;;;;;;1.85;0.63;;;5.90;99.90;;;;;;6188226;23;20092;-88
2022/11/17 08:08:12;;;;;;;1.08;0.28;;;5.90;99.90;;;;;;6213616;23;20467;-88
2022/11/17 08:10:41;;;;;;;0.30;0.28;;;5.90;99.90;;;;;;6187591;23;20021;-88
2022/11/17 08:13:07;;;;;;;0.45;0.40;;;6.10;99.90;;;;;;6188065;23;20048;-87
2022/11/17 08:15:34;;;;;;;1.13;0.47;;;5.90;99.90;;;;;;6212726;23;20383;-87
2022/11/17 08:18:03;;;;;;;0.40;0.20;;;5.90;99.90;;;;;;6213486;23;20020;-88
2022/11/17 08:20:32;;;;;;;2.13;1.42;;;6.60;99.90;;;;;;6212634;23;20104;-87
2022/11/17 08:23:07;;;;;;;0.63;0.50;;;6.00;99.90;;;;;;6213522;23;20021;-89
2022/11/17 08:25:36;;;;;;;1.90;0.35;;;6.40;99.90;;;;;;6212035;23;20017;-90
2022/11/17 08:28:02;;;;;;;1.00;0.43;;;5.70;99.90;;;;;;6187306;23;20016;-87
2022/11/17 08:30:29;;;;;;;1.13;0.50;;;5.90;99.90;;;;;;6162749;23;20326;-88
2022/11/17 08:32:55;;;;;;;0.25;0.22;;;5.90;99.90;;;;;;6187836;23;20492;-89
2022/11/17 08:35:25;;;;;;;1.03;0.60;;;6.00;99.90;;;;;;6212062;23;20078;-89
2022/11/17 08:37:52;;;;;;;0.88;0.40;;;6.70;99.90;;;;;;6187389;23;20143;-87
2022/11/17 08:40:18;;;;;;;;;;;5.90;99.90;;;;;;6187798;23;20027;-90
2022/11/17 08:42:45;;;;;;;0.28;0.20;;;5.90;99.90;;;;;;6185898;23;19974;-90
2022/11/17 08:45:11;;;;;;;0.63;0.43;;;6.00;99.90;;;;;;6187212;23;20024;-89
2022/11/17 08:47:37;;;;;;;0.40;0.40;;;6.80;99.90;;;;;;6185945;23;20083;-89
2022/11/17 08:50:07;;;;;;;0.52;0.40;;;5.90;99.90;;;;;;6188143;23;20471;-88
2022/11/17 08:52:35;;;;;;;0.43;0.25;;;6.00;99.90;;;;;;6187397;23;20016;-88
2022/11/17 08:55:01;;;;;;;1.10;0.60;;;6.00;99.90;;;;;;6187610;23;20072;-87
2022/11/17 08:57:31;;;;;;;0.50;0.33;;;5.90;99.90;;;;;;6210411;23;20017;-89
2022/11/17 08:59:57;;;;;;;1.88;0.65;;;6.40;99.90;;;;;;6187758;23;20032;-89
2022/11/17 09:02:25;;;;;;;0.10;0.05;;;5.90;99.90;;;;;;6213037;23;20441;-88
2022/11/17 09:04:51;;;;;;;0.65;0.40;;;6.70;99.90;;;;;;6212657;23;20028;-89
2022/11/17 09:07:17;;;;;;;0.43;0.43;;;5.90;99.90;;;;;;6189607;23;20017;-89
2022/11/17 09:09:45;;;;;;;1.08;0.60;;;5.90;99.90;;;;;;6188929;23;20016;-89
2022/11/17 09:12:11;;;;;;;1.33;0.57;;;6.50;99.90;;;;;;6190374;23;20346;-90
2022/11/17 09:14:36;;;;;;;2.43;0.53;;;6.00;99.90;;;;;;6189547;23;20023;-89
2022/11/17 09:17:03;;;;;;;0.33;0.33;;;7.20;99.90;;;;;;6190019;23;20012;-91
2022/11/17 09:19:31;;;;;;;0.75;0.60;;;6.00;99.90;;;;;;6189211;23;20024;-89
2022/11/17 09:21:56;;;;;;;0.55;0.55;;;7.10;99.90;;;;;;6189656;23;20024;-89
2022/11/17 09:24:25;;;;;;;0.30;0.30;;;7.30;99.90;;;;;;6190065;23;20013;-88
2022/11/17 09:26:53;;;;;;;0.47;0.38;;;6.00;99.90;;;;;;6187756;23;20027;-89
2022/11/17 09:29:21;;;;;;;0.40;0.30;;;6.00;99.90;;;;;;6188735;23;20014;-89
2022/11/17 09:31:57;;;;;;;1.05;0.25;;;5.90;99.90;;;;;;6190779;23;20023;-92
2022/11/17 09:34:23;;;;;;;0.60;0.47;;;6.00;99.90;;;;;;6190029;23;20099;-88
2022/11/17 09:36:49;;;;;;;0.80;0.53;;;5.90;99.90;;;;;;6164570;23;20399;-89
2022/11/17 09:39:15;;;;;;;0.10;0.10;;;6.00;99.90;;;;;;6188720;23;20012;-89
2022/11/17 09:41:42;;;;;;;0.33;0.30;;;6.00;99.90;;;;;;6188909;23;20067;-88
2022/11/17 09:44:23;;;;;;;0.10;0.03;;;6.00;99.90;;;;;;6189828;23;20013;-88
2022/11/17 09:47:25;;;;;;;1.08;0.40;;;6.10;99.90;;;;;;6188309;23;20017;-90
2022/11/17 09:50:00;;;;;;;0.55;0.32;;;6.00;99.90;;;;;;6188865;23;20024;-90
2022/11/17 09:52:57;;;;;;;0.10;0.10;;;6.00;99.90;;;;;;6189808;23;20017;-89
2022/11/17 09:55:43;;;;;;;0.60;0.22;;;6.00;99.90;;;;;;6195958;23;20385;-94
2022/11/17 09:58:40;;;;;;;0.10;0.10;;;6.10;99.90;;;;;;6190100;23;20093;-96
2022/11/17 10:01:14;;;;;;;0.75;0.32;;;6.40;99.90;;;;;;6187089;23;20016;-96
2022/11/17 10:04:15;;;;;;;0.45;0.20;;;6.00;99.90;;;;;;6187551;23;20688;-94
2022/11/17 10:07:19;;;;;;;0.70;0.30;;;5.70;99.90;;;;;;6188328;23;20024;-94
2022/11/17 10:10:12;;;;;;;0.20;0.20;;;6.20;99.90;;;;;;6187985;23;20013;-93
2022/11/17 10:12:46;;;;;;;0.28;0.20;;;6.10;99.90;;;;;;6188329;23;20021;-92
2022/11/17 10:15:48;;;;;;;0.63;0.20;;;6.10;99.90;;;;;;6188500;23;20020;-94
2022/11/17 10:18:18;;;;;;;0.60;0.10;;;7.20;99.90;;;;;;6187762;23;20016;-92
2022/11/17 10:20:56;;;;;;;;;;;;;;;;;;;;;
2022/11/17 10:23:39;;;;;;;0.40;0.40;;;6.10;99.90;;;;;;6114473;23;20462;-94
2022/11/17 10:26:33;;;;;;;0.52;0.15;;;6.10;99.90;;;;;;6134070;23;20017;-94
2022/11/17 10:29:30;;;;;;;0.82;0.20;;;6.90;99.90;;;;;;6134097;23;20055;-90
2022/11/17 10:32:32;;;;;;;0.00;0.00;;;6.10;99.90;;;;;;6160596;23;20017;-92
2022/11/17 10:35:29;;;;;;;0.22;0.20;;;6.10;99.90;;;;;;6134168;23;20021;-91
2022/11/17 10:38:00;;;;;;;0.20;0.20;;;6.00;99.90;;;;;;6131160;23;20354;-93
2022/11/17 10:40:49;;;;;;;;;;;;;;;;;;;;;
2022/11/17 10:43:41;;;;;;;0.85;0.22;;;6.00;99.90;;;;;;6157279;23;20021;-90
2022/11/17 10:46:25;;;;;;;0.20;0.10;;;6.20;99.90;;;;;;6136523;23;20373;-92
2022/11/17 10:49:07;;;;;;;0.52;0.52;;;6.20;99.90;;;;;;6132911;23;20486;-96
2022/11/17 10:51:41;;;;;;;0.22;0.22;;;6.10;99.90;;;;;;6135536;23;20419;-92
2022/11/17 10:54:16;;;;;;;0.57;0.30;;;6.90;99.90;;;;;;6111089;23;20017;-93
2022/11/17 10:56:49;;;;;;;0.30;0.20;;;6.10;99.90;;;;;;6133023;23;20071;-92
2022/11/17 10:59:41;;;;;;;0.85;0.43;;;6.70;99.90;;;;;;6158962;23;20025;-91
2022/11/17 11:02:32;;;;;;;0.10;0.10;;;6.10;99.90;;;;;;6134767;23;20076;-92
2022/11/17 11:05:17;;;;;;;0.47;0.30;;;6.10;99.90;;;;;;6131748;23;20029;-92
2022/11/17 11:07:45;;;;;;;0.00;0.00;;;6.20;99.90;;;;;;6157474;23;20448;-94
2022/11/17 11:10:35;;;;;;;0.88;0.40;;;6.20;99.90;;;;;;6109171;23;20017;-91
2022/11/17 11:13:39;;;;;;;0.70;0.43;;;6.10;99.90;;;;;;6132851;23;20028;-91
2022/11/17 11:16:11;;;;;;;0.40;0.40;;;6.10;99.90;;;;;;6044706;23;20100;-92
2022/11/17 11:18:39;;;;;;;0.20;0.20;;;6.20;99.90;;;;;;6040936;23;20025;-92
2022/11/17 11:21:24;;;;;;;0.52;0.40;;;7.10;99.90;;;;;;6137325;23;20091;-92
2022/11/17 11:24:21;;;;;;;0.10;0.10;;;6.20;99.90;;;;;;6187067;23;20397;-91
2022/11/17 11:26:56;;;;;;;0.77;0.32;;;6.20;99.90;;;;;;6186845;23;20021;-89
2022/11/17 11:29:33;;;;;;;1.33;0.25;;;6.20;99.90;;;;;;6186890;23;20020;-88
2022/11/17 11:32:20;;;;;;;0.68;0.20;;;6.10;99.90;;;;;;6212728;23;20021;-91
2022/11/17 11:35:02;;;;;;;0.20;0.20;;;6.30;99.90;;;;;;6195531;23;20045;-92
2022/11/17 11:37:49;;;;;;;3.00;0.57;;;6.30;99.90;;;;;;6216654;23;20043;-89
2022/11/17 11:40:27;;;;;;;0.10;0.10;;;6.30;99.90;;;;;;6212341;23;20023;-89
2022/11/17 11:43:25;;;;;;;0.10;0.10;;;6.50;99.90;;;;;;6212496;23;20017;-88
2022/11/17 11:46:26;;;;;;;0.10;0.10;;;6.20;99.90;;;;;;6156792;23;20333;-89
2022/11/17 11:48:56;;;;;;;0.30;0.15;;;6.30;99.90;;;;;;6187921;23;20027;-89
2022/11/17 11:51:29;;;;;;;0.10;0.08;;;6.20;99.90;;;;;;6188155;23;20020;-90
2022/11/17 11:54:36;;;;;;;0.13;0.13;;;6.30;99.90;;;;;;6186990;23;20012;-90
2022/11/17 11:57:03;;;;;;;0.45;0.20;;;6.30;99.90;;;;;;6187004;23;20020;-89
2022/11/17 11:59:40;;;;;;;1.15;0.47;;;6.40;99.90;;;;;;6188354;23;20013;-90
2022/11/17 12:02:15;;;;;;;1.08;0.43;;;6.40;99.90;;;;;;6213275;23;20013;-89
2022/11/17 12:04:59;;;;;;;;;;;6.40;99.90;;;;;;6189426;23;20364;-88
2022/11/17 12:07:47;;;;;;;0.08;0.08;;;6.40;99.90;;;;;;6188428;23;19924;-91
2022/11/17 12:10:45;;;;;;;0.20;0.17;;;6.50;99.90;;;;;;6185320;23;20100;-90
2022/11/17 12:13:17;;;;;;;0.38;0.20;;;6.40;99.90;;;;;;6149110;23;20078;-91
2022/11/17 12:15:43;;;;;;;0.10;0.10;;;7.20;99.90;;;;;;6186733;23;20099;-88
2022/11/17 12:18:11;;;;;;;0.40;0.30;;;6.50;99.90;;;;;;6209654;23;20016;-90
2022/11/17 12:20:37;;;;;;;0.47;0.10;;;6.50;99.90;;;;;;6186829;23;20095;-88
2022/11/17 12:23:21;;;;;;;0.43;0.30;;;7.30;99.90;;;;;;6184143;23;20063;-88
2022/11/17 12:25:50;;;;;;;0.15;0.15;;;6.60;99.90;;;;;;6184358;23;20508;-88
2022/11/17 12:28:31;;;;;;;0.30;0.10;;;6.60;99.90;;;;;;6208982;23;20016;-88
2022/11/17 12:31:03;;;;;;;0.55;0.05;;;6.70;99.90;;;;;;6184361;23;20078;-88
2022/11/17 12:33:50;;;;;;;0.45;0.30;;;6.70;99.90;;;;;;6187004;23;20016;-89
2022/11/17 12:36:31;;;;;;;0.20;0.20;;;6.70;99.90;;;;;;6185590;23;20021;-89
2022/11/17 12:38:59;;;;;;;0.40;0.30;;;6.70;99.90;;;;;;6184421;23;20024;-89
2022/11/17 12:41:46;;;;;;;1.48;0.32;;;6.70;99.90;;;;;;6186270;23;20023;-89
2022/11/17 12:44:37;;;;;;;0.17;0.17;;;6.80;99.90;;;;;;6187859;23;20478;-88
2022/11/17 12:47:12;;;;;;;0.28;0.17;;;6.80;99.90;;;;;;6187663;23;20028;-89
2022/11/17 12:49:50;;;;;;;1.83;0.35;;;6.20;99.90;;;;;;6189099;23;20012;-89
2022/11/17 12:52:44;;;;;;;0.95;0.13;;;6.90;99.90;;;;;;6184554;23;20394;-89
2022/11/17 12:55:45;;;;;;;0.00;0.00;;;6.90;99.90;;;;;;6188272;23;20055;-89
2022/11/17 12:58:26;;;;;;;0.05;0.05;;;6.90;99.90;;;;;;6168255;23;20024;-91
2022/11/17 13:01:16;;;;;;;0.32;0.32;;;7.00;99.90;;;;;;6188834;23;20466;-91
2022/11/17 13:04:04;;;;;;;0.10;0.10;;;7.10;99.90;;;;;;6190126;23;20040;-89
2022/11/17 13:06:30;;;;;;;0.45;0.20;;;7.00;99.90;;;;;;6188379;23;20016;-89
2022/11/17 13:09:02;;;;;;;1.10;0.10;;;7.00;99.90;;;;;;6213707;23;20019;-92
2022/11/17 13:11:28;;;;;;;0.25;0.10;;;7.00;99.90;;;;;;6189084;23;20020;-89
2022/11/17 13:14:07;;;;;;;0.10;0.10;;;7.10;99.90;;;;;;6164644;23;20445;-90
2022/11/17 13:16:36;;;;;;;0.60;0.50;;;6.80;99.90;;;;;;6189760;23;20728;-91
2022/11/17 13:19:02;;;;;;;0.52;0.20;;;8.30;99.90;;;;;;6188191;23;20450;-90
2022/11/17 13:21:31;;;;;;;;;;;7.10;99.90;;;;;;6189700;23;20005;-91
2022/11/17 13:24:00;;;;;;;0.25;0.20;;;7.30;99.90;;;;;;6189320;23;19926;-92
2022/11/17 13:26:36;;;;;;;0.10;0.10;;;7.10;99.90;;;;;;6188783;23;20150;-91
2022/11/17 13:29:25;;;;;;;0.40;0.40;;;7.20;99.90;;;;;;6189165;23;20009;-92
2022/11/17 13:32:15;;;;;;;0.30;0.28;;;7.20;99.90;;;;;;6190620;23;20457;-91
2022/11/17 13:34:55;;;;;;;0.30;0.20;;;7.40;99.90;;;;;;6193190;23;20103;-91
2022/11/17 13:37:29;;;;;;;0.25;0.03;;;8.00;99.90;;;;;;6189614;23;20388;-91
2022/11/17 13:40:18;;;;;;;0.30;0.30;;;7.20;99.90;;;;;;6189560;23;20048;-89
2022/11/17 13:42:49;;;;;;;1.30;0.25;;;7.20;99.90;;;;;;6188160;23;20781;-89
2022/11/17 13:45:15;;;;;;;0.57;0.50;;;7.10;99.90;;;;;;6165602;23;20020;-88
2022/11/17 13:47:46;;;;;;;0.52;0.20;;;7.20;99.90;;;;;;6164207;23;20013;-89
2022/11/17 13:50:21;;;;;;;0.30;0.30;;;7.20;99.90;;;;;;6187044;23;20484;-89
2022/11/17 13:52:55;;;;;;;0.17;0.17;;;7.10;99.90;;;;;;6188421;23;20024;-88
2022/11/17 13:55:22;;;;;;;0.30;0.10;;;8.10;99.90;;;;;;6188140;23;20118;-89
2022/11/17 13:58:03;;;;;;;0.10;0.10;;;7.10;99.90;;;;;;6188089;23;20441;-91
2022/11/17 14:00:30;;;;;;;0.10;0.08;;;7.10;99.90;;;;;;6188144;23;20052;-92
2022/11/17 14:02:58;;;;;;;;;;;7.10;99.90;;;;;;6189192;23;20056;-91
2022/11/17 14:05:31;;;;;;;0.15;0.13;;;7.10;99.90;;;;;;6163678;23;19970;-89
2022/11/17 14:08:12;;;;;;;0.20;0.20;;;7.20;99.90;;;;;;6188861;23;20016;-90
2022/11/17 14:10:41;;;;;;;0.10;0.10;;;7.10;99.90;;;;;;6188412;23;20067;-88
2022/11/17 14:13:23;;;;;;;0.13;0.13;;;7.10;99.90;;;;;;6187334;23;20020;-90
2022/11/17 14:15:52;;;;;;;0.10;0.10;;;8.20;99.90;;;;;;6188023;23;20017;-94
2022/11/17 14:18:26;;;;;;;0.10;0.10;;;7.10;99.90;;;;;;6188140;23;20013;-90
2022/11/17 14:21:06;;;;;;;0.32;0.25;;;7.10;99.90;;;;;;6188698;23;20341;-88
2022/11/17 14:23:39;;;;;;;0.40;0.20;;;7.10;99.90;;;;;;6189096;23;20027;-88
2022/11/17 14:26:12;;;;;;;2.63;0.60;;;7.10;99.90;;;;;;6188588;23;20024;-88
2022/11/17 14:28:38;;;;;;;1.30;0.13;;;7.10;99.90;;;;;;6213104;23;20502;-89
2022/11/17 14:31:06;;;;;;;0.73;0.30;;;7.60;99.90;;;;;;6164371;23;20066;-90
2022/11/17 14:33:32;;;;;;;0.40;0.20;;;7.20;99.90;;;;;;6163117;23;20016;-85
2022/11/17 14:35:59;;;;;;;0.20;0.10;;;7.20;99.90;;;;;;6161387;23;20397;-92
2022/11/17 14:38:27;;;;;;;;;;;7.10;99.90;;;;;;6187002;23;20017;-91
2022/11/17 14:40:52;;;;;;;;;;;7.10;99.90;;;;;;6163843;23;19920;-91
2022/11/17 14:43:23;;;;;;;0.73;0.30;;;7.20;99.90;;;;;;6162171;23;19920;-91
2022/11/17 14:45:52;;;;;;;0.32;0.30;;;7.10;99.90;;;;;;6186194;23;20016;-90
2022/11/17 14:48:23;;;;;;;0.75;0.30;;;7.30;99.90;;;;;;6212863;23;20017;-90
2022/11/17 14:50:58;;;;;;;0.73;0.30;;;7.20;99.90;;;;;;6163161;23;20013;-88
2022/11/17 14:53:38;;;;;;;0.43;0.20;;;7.20;99.90;;;;;;6188523;23;20079;-88
2022/11/17 14:56:07;;;;;;;0.30;0.20;;;7.80;99.90;;;;;;6188609;23;20499;-89
2022/11/17 14:58:36;;;;;;;0.20;0.20;;;7.10;99.90;;;;;;6213696;23;20027;-90